This is the latest recevied weather packets stored in our database for station/object DL9GJ-4. If no packets are shown the sender has not sent any weather packets the latest 10 day(s).
| Time | Temp. | Humidity | Pressure | Rain* | Wind** | Luminosity | Snow |
|---|---|---|---|---|---|---|---|
| 1777892354 | 20.56° C | 14% | 1011 hPa | 0 mm | - | - | - |
| 1777891628 | 21.11° C | 14% | 1011 hPa | 0 mm | - | - | - |
| 1777890901 | 21.11° C | 14% | 1011 hPa | 0 mm | - | - | - |
| 1777890182 | 20° C | 15% | 1012 hPa | 0 mm | - | - | - |
| 1777888741 | 19.44° C | 15% | 1012 hPa | 0 mm | - | - | - |
| 1777888380 | 20° C | 15% | 1012 hPa | 0 mm | - | - | - |
| 1777888022 | 20.56° C | 14% | 1012 hPa | 0 mm | - | - | - |
| 1777887302 | 21.11° C | 14% | 1012 hPa | 0 mm | - | - | - |
| 1777886940 | 21.11° C | 14% | 1012 hPa | 0 mm | - | - | - |
| 1777886580 | 21.11° C | 14% | 1012 hPa | 0 mm | - | - | - |
| 1777886220 | 20.56° C | 14% | 1012 hPa | 0 mm | - | - | - |
| 1777885501 | 20° C | 15% | 1012 hPa | 0 mm | - | - | - |
| 1777883700 | 19.44° C | 17% | 1012 hPa | 0 mm | - | - | - |
| 1777882619 | 18.33° C | 20% | 1012 hPa | 0 mm | - | - | - |
| 1777881899 | 17.22° C | 20% | 1012 hPa | 0 mm | - | - | - |
| 1777881538 | 16.67° C | 23% | 1012 hPa | 0 mm | - | - | - |
| 1777881178 | 16.11° C | 23% | 1013 hPa | 0 mm | - | - | - |
| 1777880007 | 15° C | 28% | 1013 hPa | 0 mm | - | - | - |
| 1777879727 | 16.11° C | 25% | 1013 hPa | 0 mm | - | - | - |
| 1777879364 | 15.56° C | 27% | 1013 hPa | 0 mm | - | - | - |
| 1777879002 | 15° C | 28% | 1013 hPa | 0 mm | - | - | - |
| 1777878639 | 15° C | 28% | 1013 hPa | 0 mm | - | - | - |
| 1777878277 | 14.44° C | 31% | 1013 hPa | 0 mm | - | - | - |
| 1777878272 | 14.44° C | 31% | 1013 hPa | 0 mm | - | - | - |
| 1777877909 | 13.89° C | 31% | 1013 hPa | 0 mm | - | - | - |
* Rain latest hour (hover to see other rain measurements)
** Current wind speed in m/s (hover to see current wind gust speed)